createdAt,value
2023-03-08T00:02:08.334Z,101473.19
2023-03-08T00:04:39.555Z,101480.94
2023-03-08T00:07:09.523Z,101471.56
2023-03-08T00:09:40.861Z,101478.72
2023-03-08T00:12:12.822Z,101485.34
2023-03-08T00:14:42.948Z,101488.94
2023-03-08T00:17:12.886Z,101486.19
2023-03-08T00:19:42.795Z,101494.75
2023-03-08T00:22:13.798Z,101502.44
2023-03-08T00:24:43.468Z,101508.84
2023-03-08T00:27:13.390Z,101512.13
2023-03-08T00:29:43.378Z,101508.78
2023-03-08T00:32:13.215Z,101520.09
2023-03-08T00:34:48.455Z,101516.22
2023-03-08T00:37:18.466Z,101523.19
2023-03-08T00:39:56.607Z,101524.28
2023-03-08T00:42:27.235Z,101527.56
2023-03-08T00:44:57.623Z,101527.06
2023-03-08T00:47:27.532Z,101525.94
2023-03-08T00:49:57.832Z,101532.03
2023-03-08T00:52:27.962Z,101527.34
2023-03-08T00:55:15.913Z,101532.03
2023-03-08T00:57:45.927Z,101538.38
2023-03-08T01:00:16.483Z,101539.19
2023-03-08T01:02:46.635Z,101535.91
2023-03-08T01:05:16.714Z,101534.50
2023-03-08T01:07:46.979Z,101544.72
2023-03-08T01:10:17.409Z,101550.25
2023-03-08T01:12:47.513Z,101557.41
2023-03-08T01:15:17.667Z,101553.75
2023-03-08T01:17:47.486Z,101558.22
2023-03-08T01:20:17.382Z,101557.94
2023-03-08T01:22:47.180Z,101567.31
2023-03-08T01:25:17.037Z,101566.22
2023-03-08T01:27:46.895Z,101571.19
2023-03-08T01:30:17.264Z,101575.59
2023-03-08T01:32:47.290Z,101570.06
2023-03-08T01:35:17.245Z,101579.16
2023-03-08T01:37:55.648Z,101578.34
2023-03-08T01:40:25.760Z,101579.16
2023-03-08T01:42:55.605Z,101585.50
2023-03-08T01:46:02.338Z,101583.56
2023-03-08T01:49:22.373Z,101587.16
2023-03-08T01:51:54.416Z,101580.53
2023-03-08T01:55:13.972Z,101582.16
2023-03-08T01:57:51.506Z,101579.91
2023-03-08T02:00:28.973Z,101580.75
2023-03-08T02:03:04.410Z,101582.06
2023-03-08T02:05:38.082Z,101576.88
2023-03-08T02:08:16.764Z,101577.97
2023-03-08T02:10:47.847Z,101574.91
2023-03-08T02:13:18.858Z,101573.28
2023-03-08T02:16:10.620Z,101576.88
2023-03-08T02:19:19.606Z,101573.28
2023-03-08T02:22:15.350Z,101578.19
2023-03-08T02:24:45.769Z,101571.56
2023-03-08T02:27:28.387Z,101577.59
2023-03-08T02:29:58.459Z,101585.56
2023-03-08T02:32:28.642Z,101588.06
2023-03-08T02:34:58.735Z,101582.53
2023-03-08T02:37:28.621Z,101584.69
2023-03-08T02:39:58.511Z,101584.97
2023-03-08T02:42:28.520Z,101581.41
2023-03-08T02:44:58.448Z,101587.47
2023-03-08T02:47:28.390Z,101583.53
2023-03-08T02:50:16.715Z,101586.56
2023-03-08T02:52:47.668Z,101580.19
2023-03-08T02:55:17.900Z,101577.16
2023-03-08T02:57:48.329Z,101576.03
2023-03-08T03:00:21.125Z,101573.28
2023-03-08T03:02:51.413Z,101568.03
2023-03-08T03:05:22.862Z,101570.78
2023-03-08T03:08:11.396Z,101566.13
2023-03-08T03:13:09.362Z,101560.28
2023-03-08T03:15:42.671Z,101561.13
2023-03-08T03:18:12.716Z,101565.81
2023-03-08T03:20:42.579Z,101570.19
2023-03-08T03:23:12.437Z,101560.81
2023-03-08T03:25:51.795Z,101565.50
2023-03-08T03:28:23.638Z,101568.78
2023-03-08T03:31:14.955Z,101562.13
2023-03-08T03:34:03.390Z,101559.38
2023-03-08T03:36:34.284Z,101560.22
2023-03-08T03:39:05.066Z,101562.66
2023-03-08T03:41:37.804Z,101551.63
2023-03-08T03:44:12.771Z,101546.94
2023-03-08T03:46:44.664Z,101542.53
2023-03-08T03:49:18.827Z,101546.09
2023-03-08T03:51:49.611Z,101549.38
2023-03-08T03:57:23.222Z,101543.06
2023-03-08T04:00:12.409Z,101528.09
2023-03-08T04:02:49.025Z,101527.28
2023-03-08T04:05:21.940Z,101525.34
2023-03-08T04:07:55.179Z,101523.09
2023-03-08T04:13:15.019Z,101509.81
2023-03-08T04:15:45.834Z,101505.94
2023-03-08T04:18:16.414Z,101509.53
2023-03-08T04:20:49.229Z,101496.53
2023-03-08T04:23:37.732Z,101501.75
2023-03-08T04:26:10.708Z,101493.16
2023-03-08T04:28:40.800Z,101487.66
2023-03-08T04:31:23.338Z,101484.88
2023-03-08T04:34:11.645Z,101484.88
2023-03-08T04:36:42.476Z,101476.59
2023-03-08T04:39:12.598Z,101478.78
2023-03-08T04:41:42.625Z,101474.41
2023-03-08T04:44:23.546Z,101462.75
2023-03-08T04:46:56.264Z,101450.06
2023-03-08T04:49:44.356Z,101446.19
2023-03-08T04:52:15.469Z,101448.63
2023-03-08T04:54:46.307Z,101445.53
2023-03-08T05:00:16.450Z,101431.44
2023-03-08T05:02:46.882Z,101427.56
2023-03-08T05:05:20.478Z,101424.28
2023-03-08T05:07:51.031Z,101415.69
2023-03-08T05:10:21.304Z,101404.34
2023-03-08T05:12:53.028Z,101405.16
2023-03-08T05:15:25.708Z,101408.75
2023-03-08T05:17:55.899Z,101401.28
2023-03-08T05:20:25.822Z,101399.03
2023-03-08T05:22:59.008Z,101389.09
2023-03-08T05:25:45.925Z,101387.16
2023-03-08T05:28:18.033Z,101385.22
2023-03-08T05:30:49.704Z,101386.53
2023-03-08T05:33:21.189Z,101378.25
2023-03-08T05:38:42.376Z,101373.25
2023-03-08T05:41:18.967Z,101372.94
2023-03-08T05:43:52.863Z,101376.22
2023-03-08T05:46:41.554Z,101361.06
2023-03-08T05:49:14.329Z,101349.72
2023-03-08T05:51:45.093Z,101348.59
2023-03-08T05:54:15.124Z,101340.63
2023-03-08T05:56:47.758Z,101344.69
2023-03-08T05:59:29.020Z,101336.41
2023-03-08T06:02:03.777Z,101330.59
2023-03-08T06:04:47.531Z,101335.81
2023-03-08T06:07:20.373Z,101328.63
2023-03-08T06:09:56.977Z,101326.38
2023-03-08T06:12:28.247Z,101319.75
2023-03-08T06:15:02.076Z,101311.97
2023-03-08T06:17:36.826Z,101304.81
2023-03-08T06:23:30.439Z,101297.53
2023-03-08T06:26:18.706Z,101292.81
2023-03-08T06:28:49.251Z,101283.72
2023-03-08T06:31:20.837Z,101285.66
2023-03-08T06:37:13.682Z,101272.03
2023-03-08T06:40:03.108Z,101272.03
2023-03-08T06:42:51.485Z,101264.59
2023-03-08T06:45:21.509Z,101268.16
2023-03-08T06:47:51.384Z,101258.22
2023-03-08T06:50:21.729Z,101260.69
2023-03-08T06:52:53.169Z,101252.06
2023-03-08T06:55:33.499Z,101249.31
2023-03-08T06:58:21.976Z,101236.00
2023-03-08T07:01:11.940Z,101232.94
2023-03-08T07:03:42.264Z,101228.22
2023-03-08T07:06:12.823Z,101224.34
2023-03-08T07:08:43.788Z,101214.94
2023-03-08T07:11:14.035Z,101213.47
2023-03-08T07:13:44.033Z,101218.19
2023-03-08T07:16:15.944Z,101208.44
2023-03-08T07:18:46.156Z,101195.25
2023-03-08T07:21:16.036Z,101185.03
2023-03-08T07:23:45.902Z,101182.78
2023-03-08T07:26:15.732Z,101176.94
2023-03-08T07:28:45.576Z,101172.22
2023-03-08T07:31:15.825Z,101157.59
2023-03-08T07:33:46.026Z,101159.22
2023-03-08T07:36:16.310Z,101152.56
2023-03-08T07:38:47.166Z,101136.78
2023-03-08T07:41:17.212Z,101138.44
2023-03-08T07:43:47.275Z,101139.78
2023-03-08T07:46:20.522Z,101135.06
2023-03-08T07:48:50.571Z,101126.44
2023-03-08T07:51:20.516Z,101122.88
2023-03-08T07:53:50.598Z,101119.50
2023-03-08T07:56:20.941Z,101112.34
2023-03-08T07:58:51.012Z,101107.59
2023-03-08T08:01:21.167Z,101099.31
2023-03-08T08:03:51.092Z,101089.09
2023-03-08T08:06:21.108Z,101091.88
2023-03-08T08:08:50.952Z,101085.22
2023-03-08T08:11:24.752Z,101083.56
2023-03-08T08:13:54.965Z,101072.53
2023-03-08T08:16:25.190Z,101071.38
2023-03-08T08:18:56.603Z,101068.63
2023-03-08T08:24:30.846Z,101063.91
2023-03-08T08:27:19.360Z,101056.91
2023-03-08T08:29:51.682Z,101052.53
2023-03-08T08:32:21.641Z,101062.44
2023-03-08T08:34:51.479Z,101057.41
2023-03-08T08:37:22.604Z,101053.00
2023-03-08T08:40:13.404Z,101056.28
2023-03-08T08:42:43.585Z,101052.72
2023-03-08T08:45:13.861Z,101051.88
2023-03-08T08:47:43.909Z,101048.00
2023-03-08T08:50:14.306Z,101048.00
2023-03-08T08:52:44.411Z,101049.63
2023-03-08T08:55:14.884Z,101040.53
2023-03-08T08:57:44.879Z,101039.69
2023-03-08T09:00:15.418Z,101040.81
2023-03-08T09:02:45.452Z,101032.25
2023-03-08T09:05:15.630Z,101025.38
2023-03-08T09:08:04.310Z,101027.50
2023-03-08T09:13:23.098Z,101029.47
2023-03-08T09:15:53.000Z,101037.75
2023-03-08T09:18:22.840Z,101030.28
2023-03-08T09:20:52.784Z,101028.34
2023-03-08T09:23:23.462Z,101026.38
2023-03-08T09:26:11.727Z,101038.56
2023-03-08T09:28:41.891Z,101038.25
2023-03-08T09:31:17.095Z,101035.81
2023-03-08T09:33:50.535Z,101035.81
2023-03-08T09:36:20.744Z,101044.91
2023-03-08T09:38:52.440Z,101036.13
2023-03-08T09:41:25.336Z,101042.47
2023-03-08T09:44:13.921Z,101036.13
2023-03-08T09:46:51.074Z,101051.88
2023-03-08T09:49:40.933Z,101048.50
2023-03-08T09:52:35.580Z,101049.63
2023-03-08T09:55:08.244Z,101056.78
2023-03-08T09:57:44.565Z,101052.09
2023-03-08T10:00:40.508Z,101045.72
2023-03-08T10:03:40.848Z,101043.78
2023-03-08T10:06:37.071Z,101050.13
2023-03-08T10:09:45.155Z,101050.94
2023-03-08T10:12:54.911Z,101052.88
2023-03-08T10:15:27.417Z,101055.16
2023-03-08T10:18:03.841Z,101052.88
2023-03-08T10:20:52.350Z,101060.38
2023-03-08T10:23:24.162Z,101059.03
2023-03-08T10:25:54.265Z,101063.94
2023-03-08T10:28:26.690Z,101070.28
2023-03-08T10:31:02.367Z,101058.41
2023-03-08T10:33:38.217Z,101061.19
2023-03-08T10:36:19.772Z,101059.25
2023-03-08T10:39:09.564Z,101060.03
2023-03-08T10:41:48.112Z,101065.56
2023-03-08T10:44:42.129Z,101067.19
2023-03-08T10:47:36.632Z,101074.38
2023-03-08T10:50:16.115Z,101071.91
2023-03-08T10:52:48.299Z,101071.91
2023-03-08T10:55:25.356Z,101067.53
2023-03-08T10:58:01.023Z,101066.38
2023-03-08T11:00:38.212Z,101070.28
2023-03-08T11:03:23.586Z,101076.63
2023-03-08T11:05:55.934Z,101069.47
2023-03-08T11:08:32.724Z,101069.47
2023-03-08T11:11:08.732Z,101078.25
2023-03-08T11:13:44.180Z,101081.03
2023-03-08T11:16:37.087Z,101076.63
2023-03-08T11:19:25.742Z,101076.63
2023-03-08T11:22:14.931Z,101074.66
2023-03-08T11:25:02.908Z,101077.75
2023-03-08T11:28:10.490Z,101085.72
2023-03-08T11:30:59.532Z,101080.19
2023-03-08T11:34:09.624Z,101090.44
2023-03-08T11:37:05.336Z,101087.69
2023-03-08T11:39:43.151Z,101095.97
2023-03-08T11:43:04.255Z,101101.00
2023-03-08T11:45:39.564Z,101104.88
2023-03-08T11:48:27.736Z,101110.75
2023-03-08T11:51:27.343Z,101105.22
2023-03-08T11:54:06.095Z,101107.47
2023-03-08T11:56:36.668Z,101115.44
2023-03-08T11:59:16.739Z,101118.22
2023-03-08T12:02:13.673Z,101124.56
2023-03-08T12:05:17.310Z,101122.31
2023-03-08T12:07:55.019Z,101132.53
2023-03-08T12:10:34.209Z,101127.00
2023-03-08T12:13:44.420Z,101128.63
2023-03-08T12:16:34.773Z,101129.47
2023-03-08T12:19:38.266Z,101136.94
2023-03-08T12:22:48.225Z,101140.81
2023-03-08T12:25:35.581Z,101146.34
2023-03-08T12:28:31.198Z,101154.34
2023-03-08T12:31:28.917Z,101156.59
2023-03-08T12:34:01.448Z,101154.63
2023-03-08T12:36:46.284Z,101161.28
2023-03-08T12:39:35.467Z,101161.28
2023-03-08T12:42:14.085Z,101167.97
2023-03-08T12:44:44.842Z,101171.56
2023-03-08T12:47:15.485Z,101170.72
2023-03-08T14:56:35.988Z,101310.09
2023-03-08T14:59:12.127Z,101313.03
2023-03-08T15:01:47.214Z,101317.66
2023-03-08T15:04:24.560Z,101314.75
2023-03-08T15:06:56.162Z,101316.31
2023-03-08T15:09:26.089Z,101317.97
2023-03-08T15:11:56.386Z,101323.38
2023-03-08T15:14:26.258Z,101327.63
2023-03-08T15:16:59.986Z,101321.59
2023-03-08T15:19:29.722Z,101326.19
2023-03-08T15:21:59.594Z,101327.53
2023-03-08T15:24:29.683Z,101324.94
2023-03-08T15:26:59.501Z,101329.84
2023-03-08T15:29:31.033Z,101327.38
2023-03-08T15:32:04.180Z,101332.28
2023-03-08T15:36:45.882Z,101332.91
2023-03-08T15:39:16.391Z,101333.06
2023-03-08T15:41:46.729Z,101341.34
2023-03-08T15:44:16.982Z,101333.34
2023-03-08T15:46:51.511Z,101338.88
2023-03-08T15:49:23.167Z,101335.63
2023-03-08T15:51:53.866Z,101335.31
2023-03-08T15:54:24.002Z,101338.06
2023-03-08T15:56:54.250Z,101338.06
2023-03-08T15:59:26.150Z,101334.78
2023-03-08T16:01:56.453Z,101334.47
2023-03-08T16:04:26.738Z,101334.28
2023-03-08T16:06:57.032Z,101332.34
2023-03-08T16:09:27.237Z,101334.00
2023-03-08T16:11:57.462Z,101331.00
2023-03-08T16:14:27.790Z,101327.13
2023-03-08T16:16:57.857Z,101324.97
2023-03-08T16:19:27.803Z,101320.41
2023-03-08T16:21:57.726Z,101320.59
2023-03-08T16:24:27.918Z,101320.09
2023-03-08T16:26:58.339Z,101317.34
2023-03-08T16:29:28.884Z,101319.59
2023-03-08T16:32:00.781Z,101313.22
2023-03-08T16:34:32.140Z,101314.06
2023-03-08T16:37:03.515Z,101315.19
2023-03-08T16:39:33.737Z,101310.78
2023-03-08T16:42:03.767Z,101311.91
2023-03-08T16:44:33.730Z,101307.19
2023-03-08T16:47:03.649Z,101308.63
2023-03-08T16:49:33.671Z,101303.41
2023-03-08T16:52:03.966Z,101300.31
2023-03-08T16:54:34.203Z,101299.22
2023-03-08T16:57:18.208Z,101306.19
2023-03-08T16:59:49.212Z,101299.81
2023-03-08T17:02:21.940Z,101298.84
2023-03-08T17:04:52.528Z,101300.44
2023-03-08T17:07:22.877Z,101290.84
2023-03-08T17:12:40.529Z,101291.34
2023-03-08T17:15:15.980Z,101292.47
2023-03-08T17:17:49.366Z,101285.63
2023-03-08T17:20:24.468Z,101288.41
2023-03-08T17:22:54.603Z,101286.75
2023-03-08T17:25:27.553Z,101290.03
2023-03-08T17:27:57.967Z,101280.63
2023-03-08T17:30:28.226Z,101276.22
2023-03-08T17:32:58.945Z,101281.22
2023-03-08T17:35:34.057Z,101280.91
2023-03-08T17:38:04.404Z,101277.34
2023-03-08T17:40:34.541Z,101270.19
2023-03-08T17:43:07.442Z,101267.94
2023-03-08T17:45:37.741Z,101259.13
2023-03-08T17:48:08.099Z,101260.75
2023-03-08T17:50:40.858Z,101259.13
2023-03-08T17:53:14.866Z,101257.50
2023-03-08T17:55:44.959Z,101251.13
2023-03-08T17:58:15.208Z,101247.06
2023-03-08T18:00:45.390Z,101246.56
2023-03-08T18:03:15.632Z,101242.66
2023-03-08T18:06:03.905Z,101239.91
2023-03-08T18:08:35.548Z,101230.81
2023-03-08T18:11:06.137Z,101231.63
2023-03-08T18:13:36.391Z,101224.47
2023-03-08T18:16:07.911Z,101225.59
2023-03-08T18:18:38.360Z,101216.16
2023-03-08T18:21:13.914Z,101208.72
2023-03-08T18:23:45.492Z,101208.38
2023-03-08T18:26:15.745Z,101206.25
2023-03-08T18:28:46.085Z,101193.78
2023-03-08T18:31:25.392Z,101204.50
2023-03-08T18:33:56.409Z,101201.56
2023-03-08T18:36:27.749Z,101200.44
2023-03-08T18:38:58.033Z,101197.97
2023-03-08T18:41:30.437Z,101189.66
2023-03-08T18:44:02.250Z,101192.44
2023-03-08T18:46:34.660Z,101184.47
2023-03-08T18:49:09.043Z,101189.16
2023-03-08T18:51:42.680Z,101183.63
2023-03-08T18:54:19.301Z,101183.63
2023-03-08T18:56:52.231Z,101178.78
2023-03-08T18:59:23.281Z,101174.38
2023-03-08T19:01:53.827Z,101174.03
2023-03-08T19:05:01.803Z,101170.94
2023-03-08T19:07:15.496Z,101165.44
2023-03-08T19:09:47.213Z,101163.50
2023-03-08T19:12:18.128Z,101155.53
2023-03-08T19:14:51.033Z,101156.34
2023-03-08T19:17:21.092Z,101154.72
2023-03-08T19:19:51.088Z,101155.03
2023-03-08T19:22:21.468Z,101151.63
2023-03-08T19:24:51.611Z,101152.28
2023-03-08T19:27:21.574Z,101154.72
2023-03-08T19:29:51.462Z,101151.94
2023-03-08T19:32:22.097Z,101146.41
2023-03-08T19:34:52.432Z,101149.50
2023-03-08T19:37:22.510Z,101148.16
2023-03-08T19:39:52.472Z,101147.03
2023-03-08T19:42:22.442Z,101142.97
2023-03-08T19:44:53.355Z,101139.88
2023-03-08T19:47:23.580Z,101132.72
2023-03-08T19:49:53.726Z,101129.16
2023-03-08T19:52:23.615Z,101128.03
2023-03-08T19:54:53.587Z,101126.06
2023-03-08T19:57:23.684Z,101131.31
2023-03-08T19:59:53.555Z,101122.81
2023-03-08T20:02:23.573Z,101123.63
2023-03-08T20:04:53.505Z,101119.25
2023-03-08T20:07:23.788Z,101126.91
2023-03-08T20:10:02.286Z,101131.09
2023-03-08T20:12:40.502Z,101124.75
2023-03-08T20:15:10.628Z,101127.53
2023-03-08T20:17:40.858Z,101121.19
2023-03-08T20:20:11.945Z,101128.16
2023-03-08T20:22:42.022Z,101123.47
2023-03-08T20:25:14.442Z,101123.47
2023-03-08T20:27:47.885Z,101130.13
2023-03-08T20:30:18.146Z,101127.97
2023-03-08T20:32:48.203Z,101133.16
2023-03-08T20:35:20.793Z,101133.16
2023-03-08T20:37:52.192Z,101131.53
2023-03-08T20:40:23.061Z,101134.28
2023-03-08T20:42:53.394Z,101127.66
2023-03-08T20:45:26.050Z,101130.41
2023-03-08T20:47:59.473Z,101133.50
2023-03-08T20:50:30.221Z,101131.25
2023-03-08T20:53:00.422Z,101134.28
2023-03-08T20:55:30.383Z,101126.00
2023-03-08T20:58:00.333Z,101127.66
2023-03-08T21:00:30.356Z,101127.47
2023-03-08T21:03:00.724Z,101129.44
2023-03-08T21:05:30.930Z,101135.75
2023-03-08T21:08:00.804Z,101140.16
2023-03-08T21:10:30.991Z,101136.06
2023-03-08T21:13:02.242Z,101143.84
2023-03-08T21:15:31.981Z,101146.63
2023-03-08T21:18:01.894Z,101142.84
2023-03-08T21:20:31.810Z,101152.13
2023-03-08T21:23:01.872Z,101149.38
2023-03-08T21:25:31.905Z,101150.78
2023-03-08T21:28:01.789Z,101143.84
2023-03-08T21:30:33.049Z,101150.78
2023-03-08T21:33:03.061Z,101155.19
2023-03-08T21:35:33.031Z,101147.56
2023-03-08T21:38:03.203Z,101150.50
2023-03-08T21:40:42.320Z,101144.16
2023-03-08T21:43:12.963Z,101156.13
2023-03-08T21:45:44.631Z,101158.91
2023-03-08T21:48:15.849Z,101151.94
2023-03-08T21:50:45.953Z,101157.16
2023-03-08T21:53:15.881Z,101156.47
2023-03-08T21:55:47.685Z,101155.34
2023-03-08T21:58:17.743Z,101158.19
2023-03-08T22:00:55.970Z,101161.16
2023-03-08T22:06:17.466Z,101161.38
2023-03-08T22:08:47.853Z,101156.13
2023-03-08T22:11:18.806Z,101166.66
2023-03-08T22:13:57.467Z,101158.38
2023-03-08T22:16:28.675Z,101164.84
2023-03-08T22:19:02.515Z,101170.56
2023-03-08T22:21:33.594Z,101172.88
2023-03-08T22:24:05.194Z,101170.25
2023-03-08T22:26:35.278Z,101175.78
2023-03-08T22:29:05.157Z,101174.94
2023-03-08T22:31:35.456Z,101173.81
2023-03-08T22:34:06.397Z,101179.34
2023-03-08T22:36:37.010Z,101186.84
2023-03-08T22:39:07.228Z,101190.53
2023-03-08T22:41:37.390Z,101192.78
2023-03-08T22:44:09.036Z,101198.31
2023-03-08T22:46:39.219Z,101199.44
2023-03-08T22:49:16.003Z,101200.44
2023-03-08T22:51:46.957Z,101202.69
2023-03-08T22:54:22.012Z,101204.00
2023-03-08T22:56:52.208Z,101209.03
2023-03-08T23:15:19.478Z,101243.72
2023-03-08T23:17:49.637Z,101245.44
2023-03-08T23:20:22.204Z,101245.72
2023-03-08T23:22:53.234Z,101253.72
2023-03-08T23:25:23.344Z,101266.41
2023-03-08T23:27:53.386Z,101253.72
2023-03-08T23:30:23.594Z,101260.03
2023-03-08T23:32:53.743Z,101263.63
2023-03-08T23:35:23.793Z,101263.31
2023-03-08T23:37:53.820Z,101268.84
2023-03-08T23:40:23.757Z,101267.72
2023-03-08T23:42:53.724Z,101276.50
2023-03-08T23:45:23.767Z,101277.94
2023-03-08T23:47:53.756Z,101289.47
2023-03-08T23:50:23.682Z,101284.59
2023-03-08T23:52:53.586Z,101288.66
2023-03-08T23:55:23.507Z,101289.69
2023-03-08T23:57:53.401Z,101295.31
